createdAt,value
2018-01-07T00:00:58.784Z,70.10
2018-01-07T00:03:27.266Z,70.00
2018-01-07T00:05:55.595Z,70.50
2018-01-07T00:08:23.186Z,70.50
2018-01-07T00:10:52.736Z,71.40
2018-01-07T00:13:20.342Z,71.40
2018-01-07T00:15:47.914Z,71.10
2018-01-07T00:18:15.684Z,71.40
2018-01-07T00:20:43.260Z,71.20
2018-01-07T00:23:11.130Z,71.20
2018-01-07T00:25:38.772Z,71.30
2018-01-07T00:28:06.655Z,71.00
2018-01-07T00:30:34.265Z,70.70
2018-01-07T00:33:01.895Z,71.00
2018-01-07T00:35:29.470Z,70.70
2018-01-07T00:37:57.101Z,70.70
2018-01-07T00:40:24.706Z,70.80
2018-01-07T00:42:52.471Z,71.20
2018-01-07T00:45:20.018Z,71.10
2018-01-07T00:47:47.581Z,71.20
2018-01-07T00:50:15.151Z,71.60
2018-01-07T00:52:42.773Z,71.20
2018-01-07T00:55:11.089Z,71.20
2018-01-07T00:57:38.682Z,71.20
2018-01-07T01:00:06.296Z,70.90
2018-01-07T01:02:33.842Z,71.20
2018-01-07T01:05:02.641Z,70.90
2018-01-07T01:07:31.256Z,71.10
2018-01-07T01:09:59.223Z,71.10
2018-01-07T01:12:27.116Z,71.00
2018-01-07T01:14:54.751Z,70.90
2018-01-07T01:17:22.331Z,71.00
2018-01-07T01:19:49.923Z,71.10
2018-01-07T01:22:17.504Z,72.00
2018-01-07T01:24:46.293Z,71.30
2018-01-07T01:27:14.619Z,71.00
2018-01-07T01:29:42.210Z,71.10
2018-01-07T01:32:09.776Z,71.10
2018-01-07T01:34:37.370Z,71.70
2018-01-07T01:37:04.957Z,71.80
2018-01-07T01:39:32.741Z,71.60
2018-01-07T01:42:00.466Z,71.60
2018-01-07T01:44:28.243Z,71.70
2018-01-07T01:46:56.118Z,71.60
2018-01-07T01:49:24.288Z,71.50
2018-01-07T01:51:51.831Z,71.60
2018-01-07T01:54:20.128Z,71.80
2018-01-07T01:56:48.045Z,71.80
2018-01-07T01:59:16.510Z,72.00
2018-01-07T02:01:44.110Z,72.00
2018-01-07T02:04:11.710Z,72.30
2018-01-07T02:06:39.509Z,72.20
2018-01-07T02:09:07.898Z,72.10
2018-01-07T02:11:38.451Z,72.10
2018-01-07T02:14:06.947Z,71.90
2018-01-07T02:16:34.498Z,71.90
2018-01-07T02:19:03.091Z,72.10
2018-01-07T02:21:31.108Z,72.20
2018-01-07T02:23:58.718Z,72.30
2018-01-07T02:26:26.484Z,72.50
2018-01-07T02:28:54.205Z,72.40
2018-01-07T02:31:22.589Z,72.40
2018-01-07T02:33:50.908Z,72.50
2018-01-07T02:36:18.554Z,72.50
2018-01-07T02:38:46.103Z,72.70
2018-01-07T02:41:13.720Z,72.60
2018-01-07T02:43:41.322Z,72.50
2018-01-07T02:46:09.786Z,72.40
2018-01-07T02:48:37.701Z,72.10
2018-01-07T02:51:05.276Z,72.40
2018-01-07T02:53:33.714Z,72.10
2018-01-07T02:56:02.924Z,72.40
2018-01-07T02:58:30.498Z,72.30
2018-01-07T03:00:58.364Z,71.40
2018-01-07T03:03:26.050Z,71.40
2018-01-07T03:05:53.692Z,71.10
2018-01-07T03:08:21.247Z,70.80
2018-01-07T03:10:49.114Z,71.00
2018-01-07T03:13:16.711Z,69.20
2018-01-07T03:15:44.336Z,69.00
2018-01-07T03:18:11.997Z,67.40
2018-01-07T03:20:39.760Z,67.40
2018-01-07T03:23:07.321Z,66.90
2018-01-07T03:25:34.984Z,66.90
2018-01-07T03:28:02.568Z,67.30
2018-01-07T03:30:30.496Z,67.30
2018-01-07T03:32:58.097Z,67.20
2018-01-07T03:35:25.638Z,67.00
2018-01-07T03:37:53.216Z,67.40
2018-01-07T03:40:20.893Z,67.50
2018-01-07T03:42:48.450Z,67.30
2018-01-07T03:45:16.049Z,67.30
2018-01-07T03:47:43.659Z,67.30
2018-01-07T03:50:11.220Z,67.40
2018-01-07T03:52:38.888Z,67.00
2018-01-07T03:55:06.547Z,67.00
2018-01-07T03:57:34.107Z,67.40
2018-01-07T04:00:01.667Z,67.50
2018-01-07T04:02:29.232Z,67.70
2018-01-07T04:04:57.674Z,68.00
2018-01-07T04:07:26.015Z,67.70
2018-01-07T04:09:54.393Z,68.20
2018-01-07T04:12:21.959Z,67.60
2018-01-07T04:14:50.296Z,67.80
2018-01-07T04:17:17.997Z,67.80
2018-01-07T04:19:45.605Z,67.50
2018-01-07T04:22:13.192Z,67.40
2018-01-07T04:24:41.414Z,67.40
2018-01-07T04:27:09.027Z,67.30
2018-01-07T04:29:37.485Z,67.00
2018-01-07T04:32:05.058Z,67.00
2018-01-07T04:34:32.623Z,67.00
2018-01-07T04:37:00.267Z,66.70
2018-01-07T04:39:27.815Z,67.40
2018-01-07T04:41:55.401Z,67.40
2018-01-07T04:44:22.955Z,67.40
2018-01-07T04:46:50.518Z,68.00
2018-01-07T04:49:18.110Z,68.00
2018-01-07T04:51:45.682Z,67.90
2018-01-07T04:54:13.299Z,68.00
2018-01-07T04:56:40.914Z,68.10
2018-01-07T04:59:09.322Z,68.50
2018-01-07T05:01:36.877Z,68.50
2018-01-07T05:04:04.487Z,68.90
2018-01-07T05:06:33.692Z,68.60
2018-01-07T05:09:01.323Z,68.60
2018-01-07T05:11:28.959Z,69.00
2018-01-07T05:13:56.561Z,69.30
2018-01-07T05:16:24.152Z,69.40
2018-01-07T05:18:52.514Z,69.70
2018-01-07T05:21:20.932Z,69.80
2018-01-07T05:23:48.491Z,69.80
2018-01-07T05:26:16.051Z,69.80
2018-01-07T05:28:43.640Z,69.90
2018-01-07T05:31:11.239Z,69.40
2018-01-07T05:33:38.904Z,69.60
2018-01-07T05:36:07.052Z,69.80
2018-01-07T05:38:34.613Z,70.00
2018-01-07T05:41:02.229Z,70.20
2018-01-07T05:43:29.805Z,69.90
2018-01-07T05:45:57.399Z,70.20
2018-01-07T05:48:26.650Z,70.00
2018-01-07T05:50:54.210Z,69.90
2018-01-07T05:53:21.809Z,69.90
2018-01-07T05:55:49.390Z,69.50
2018-01-07T05:58:16.937Z,70.10
2018-01-07T06:00:44.565Z,69.50
2018-01-07T06:03:12.158Z,69.80
2018-01-07T06:05:39.782Z,70.20
2018-01-07T06:08:07.378Z,70.40
2018-01-07T06:10:35.006Z,70.60
2018-01-07T06:13:02.625Z,70.50
2018-01-07T06:15:30.789Z,70.20
2018-01-07T06:17:58.426Z,70.30
2018-01-07T06:20:26.097Z,70.20
2018-01-07T06:22:53.660Z,70.40
2018-01-07T06:25:21.210Z,70.10
2018-01-07T06:27:48.800Z,70.60
2018-01-07T06:30:16.387Z,70.60
2018-01-07T06:32:43.964Z,70.60
2018-01-07T06:35:11.556Z,70.50
2018-01-07T06:37:39.137Z,70.30
2018-01-07T06:40:07.510Z,70.10
2018-01-07T06:42:35.156Z,70.00
2018-01-07T06:45:02.788Z,69.90
2018-01-07T06:47:30.906Z,69.80
2018-01-07T06:49:58.542Z,70.00
2018-01-07T06:52:26.576Z,70.30
2018-01-07T06:54:54.258Z,70.60
2018-01-07T06:57:22.022Z,70.90
2018-01-07T06:59:49.630Z,70.30
2018-01-07T07:02:17.213Z,70.10
2018-01-07T07:04:45.562Z,69.90
2018-01-07T07:07:13.176Z,70.00
2018-01-07T07:09:40.729Z,69.20
2018-01-07T07:12:08.395Z,69.80
2018-01-07T07:14:35.953Z,69.60
2018-01-07T07:17:03.514Z,69.10
2018-01-07T07:19:31.073Z,69.30
2018-01-07T07:21:58.786Z,69.10
2018-01-07T07:24:26.359Z,69.00
2018-01-07T07:26:54.062Z,68.50
2018-01-07T07:29:21.671Z,68.00
2018-01-07T07:31:49.237Z,67.90
2018-01-07T07:34:17.416Z,68.30
2018-01-07T07:36:46.582Z,67.70
2018-01-07T07:39:14.293Z,67.70
2018-01-07T07:41:42.650Z,67.20
2018-01-07T07:44:10.247Z,67.20
2018-01-07T07:46:37.867Z,67.70
2018-01-07T07:49:05.431Z,67.50
2018-01-07T07:51:33.058Z,68.00
2018-01-07T07:54:00.890Z,68.10
2018-01-07T07:56:28.494Z,67.40
2018-01-07T07:58:56.649Z,67.50
2018-01-07T08:01:24.321Z,67.50
2018-01-07T08:03:52.349Z,67.40
2018-01-07T08:06:22.013Z,67.40
2018-01-07T08:08:49.828Z,67.00
2018-01-07T08:11:17.940Z,66.20
2018-01-07T08:13:45.515Z,66.30
2018-01-07T08:16:13.163Z,66.10
2018-01-07T08:18:40.795Z,65.40
2018-01-07T08:21:09.235Z,65.50
2018-01-07T08:23:37.098Z,65.50
2018-01-07T08:26:04.702Z,65.20
2018-01-07T08:28:32.330Z,65.00
2018-01-07T08:30:59.937Z,65.10
2018-01-07T08:33:27.642Z,65.50
2018-01-07T08:35:55.969Z,65.80
2018-01-07T08:38:23.618Z,65.40
2018-01-07T08:40:52.211Z,65.00
2018-01-07T08:43:19.810Z,64.90
2018-01-07T08:45:47.368Z,65.50
2018-01-07T08:48:15.034Z,65.40
2018-01-07T08:50:42.614Z,65.10
2018-01-07T08:53:11.020Z,64.00
2018-01-07T08:55:39.380Z,64.60
2018-01-07T08:58:06.995Z,64.60
2018-01-07T09:00:35.504Z,63.90
2018-01-07T09:03:03.101Z,62.90
2018-01-07T09:05:30.722Z,63.20
2018-01-07T09:07:58.467Z,62.80
2018-01-07T09:10:26.154Z,62.50
2018-01-07T09:12:53.847Z,62.40
2018-01-07T09:15:21.430Z,62.50
2018-01-07T09:17:49.114Z,62.20
2018-01-07T09:20:16.754Z,62.50
2018-01-07T09:22:45.086Z,62.80
2018-01-07T09:25:12.693Z,62.80
2018-01-07T09:27:41.014Z,62.80
2018-01-07T09:30:08.623Z,62.80
2018-01-07T09:32:37.340Z,62.70
2018-01-07T09:35:04.950Z,62.10
2018-01-07T09:37:32.642Z,62.20
2018-01-07T09:40:00.321Z,61.90
2018-01-07T09:42:27.961Z,62.10
2018-01-07T09:44:56.298Z,61.90
2018-01-07T09:47:24.829Z,61.90
2018-01-07T09:49:52.635Z,61.90
2018-01-07T09:52:21.427Z,62.20
2018-01-07T09:54:49.060Z,62.10
2018-01-07T09:57:16.623Z,61.50
2018-01-07T09:59:44.179Z,61.20
2018-01-07T10:02:12.386Z,61.20
2018-01-07T10:04:39.991Z,61.30
2018-01-07T10:07:07.633Z,61.30
2018-01-07T10:09:35.184Z,60.00
2018-01-07T10:12:02.779Z,60.40
2018-01-07T10:14:31.142Z,62.70
2018-01-07T10:16:58.713Z,61.90
2018-01-07T10:19:27.076Z,63.30
2018-01-07T10:21:54.697Z,62.40
2018-01-07T10:24:22.309Z,61.60
2018-01-07T10:26:49.868Z,61.50
2018-01-07T10:29:17.481Z,61.40
2018-01-07T10:31:45.055Z,60.80
2018-01-07T10:34:12.700Z,60.40
2018-01-07T10:36:40.878Z,60.30
2018-01-07T10:39:08.486Z,60.20
2018-01-07T10:41:36.178Z,60.10
2018-01-07T10:44:03.973Z,59.80
2018-01-07T10:46:31.628Z,59.10
2018-01-07T10:48:59.252Z,58.80
2018-01-07T10:51:26.845Z,59.00
2018-01-07T10:53:54.564Z,59.50
2018-01-07T10:56:22.199Z,59.50
2018-01-07T10:58:49.988Z,59.70
2018-01-07T11:01:23.341Z,60.10
2018-01-07T11:03:51.944Z,60.20
2018-01-07T11:06:19.737Z,59.60
2018-01-07T11:08:47.322Z,59.10
2018-01-07T11:11:15.133Z,59.20
2018-01-07T11:13:42.778Z,59.40
2018-01-07T11:16:10.649Z,59.40
2018-01-07T11:18:38.223Z,59.50
2018-01-07T11:21:05.910Z,59.40
2018-01-07T11:23:33.489Z,58.80
2018-01-07T11:26:01.233Z,58.60
2018-01-07T11:28:29.375Z,59.00
2018-01-07T11:30:57.197Z,58.60
2018-01-07T11:33:24.790Z,59.20
2018-01-07T11:35:52.431Z,59.40
2018-01-07T11:38:20.799Z,59.60
2018-01-07T11:40:49.134Z,59.70
2018-01-07T11:43:16.750Z,59.70
2018-01-07T11:45:44.666Z,59.70
2018-01-07T11:48:12.272Z,59.80
2018-01-07T11:50:39.887Z,59.60
2018-01-07T11:53:07.472Z,59.70
2018-01-07T11:55:35.264Z,59.90
2018-01-07T11:58:02.918Z,59.80
2018-01-07T12:00:31.250Z,59.80
2018-01-07T12:02:58.860Z,59.80
2018-01-07T12:05:26.472Z,59.80
2018-01-07T12:07:54.026Z,60.10
2018-01-07T12:10:21.695Z,60.40
2018-01-07T12:12:49.473Z,60.00
2018-01-07T12:15:17.022Z,60.20
2018-01-07T12:17:44.594Z,60.30
2018-01-07T12:20:12.246Z,60.00
2018-01-07T12:22:40.625Z,59.60
2018-01-07T12:25:08.230Z,59.50
2018-01-07T12:27:35.946Z,60.00
2018-01-07T12:30:03.517Z,60.20
2018-01-07T12:32:31.146Z,60.20
2018-01-07T12:34:58.928Z,60.30
2018-01-07T12:37:26.483Z,60.00
2018-01-07T12:39:54.140Z,59.90
2018-01-07T12:42:21.755Z,60.10
2018-01-07T12:44:50.130Z,60.20
2018-01-07T12:47:18.469Z,60.40
2018-01-07T12:49:46.042Z,60.30
2018-01-07T12:52:14.472Z,60.70
2018-01-07T12:54:42.028Z,60.60
2018-01-07T12:57:09.744Z,60.70
2018-01-07T12:59:37.597Z,60.30
2018-01-07T13:02:05.404Z,60.90
2018-01-07T13:04:33.752Z,61.20
2018-01-07T13:07:01.370Z,62.00
2018-01-07T13:09:28.956Z,61.50
2018-01-07T13:11:56.584Z,61.00
2018-01-07T13:14:24.253Z,60.50
2018-01-07T13:16:51.864Z,60.80
2018-01-07T13:19:19.496Z,61.20
2018-01-07T13:21:47.670Z,61.40
2018-01-07T13:24:15.275Z,62.60
2018-01-07T13:26:42.923Z,61.80
2018-01-07T13:29:10.554Z,61.50
2018-01-07T13:31:39.054Z,61.70
2018-01-07T13:34:06.593Z,61.90
2018-01-07T13:36:34.188Z,62.20
2018-01-07T13:39:01.828Z,62.00
2018-01-07T13:41:29.547Z,61.60
2018-01-07T13:43:57.891Z,61.60
2018-01-07T13:46:25.524Z,61.60
2018-01-07T13:48:53.106Z,61.50
2018-01-07T13:51:20.734Z,61.20
2018-01-07T13:53:48.299Z,61.20
2018-01-07T13:56:16.510Z,61.10
2018-01-07T13:58:44.116Z,61.90
2018-01-07T14:01:11.824Z,62.10
2018-01-07T14:03:39.515Z,62.00
2018-01-07T14:06:07.587Z,62.00
2018-01-07T14:08:35.169Z,62.40
2018-01-07T14:11:03.558Z,62.50
2018-01-07T14:13:31.166Z,62.40
2018-01-07T14:15:58.790Z,62.70
2018-01-07T14:18:26.657Z,62.90
2018-01-07T14:20:54.434Z,62.90
2018-01-07T14:23:22.011Z,62.80
2018-01-07T14:25:49.632Z,62.90
2018-01-07T14:28:17.261Z,63.10
2018-01-07T14:30:44.864Z,63.10
2018-01-07T14:33:12.491Z,63.40
2018-01-07T14:35:41.103Z,64.50
2018-01-07T14:38:08.798Z,64.30
2018-01-07T14:40:36.872Z,64.70
2018-01-07T14:43:04.637Z,65.00
2018-01-07T14:45:32.452Z,65.10
2018-01-07T14:48:00.842Z,65.70
2018-01-07T14:50:28.444Z,65.70
2018-01-07T14:52:56.805Z,66.10
2018-01-07T14:55:24.394Z,66.00
2018-01-07T14:57:52.002Z,66.20
2018-01-07T15:00:19.790Z,66.10
2018-01-07T15:02:47.555Z,66.40
2018-01-07T15:05:15.130Z,66.50
2018-01-07T15:07:42.770Z,66.40
2018-01-07T15:10:10.367Z,66.70
2018-01-07T15:12:38.025Z,66.90
2018-01-07T15:15:05.678Z,67.20
2018-01-07T15:17:33.504Z,67.20
2018-01-07T15:20:01.061Z,67.50
2018-01-07T15:22:28.665Z,67.90
2018-01-07T15:24:56.225Z,68.00
2018-01-07T15:27:23.816Z,68.30
2018-01-07T15:29:51.375Z,68.50
2018-01-07T15:32:19.212Z,68.60
2018-01-07T15:34:46.850Z,68.40
2018-01-07T15:37:14.407Z,69.30
2018-01-07T15:39:42.124Z,68.80
2018-01-07T15:42:09.740Z,69.00
2018-01-07T15:44:37.343Z,69.00
2018-01-07T15:47:04.909Z,69.60
2018-01-07T15:49:32.481Z,69.10
2018-01-07T15:52:00.165Z,69.30
2018-01-07T15:54:27.726Z,69.50
2018-01-07T15:56:55.310Z,69.50
2018-01-07T15:59:23.379Z,69.70
2018-01-07T16:01:50.978Z,69.90
2018-01-07T16:04:18.718Z,69.90
2018-01-07T16:06:46.375Z,69.80
2018-01-07T16:09:14.037Z,70.00
2018-01-07T16:11:41.784Z,70.10
2018-01-07T16:14:09.365Z,70.40
2018-01-07T16:16:36.934Z,70.40
2018-01-07T16:19:04.563Z,70.50
2018-01-07T16:21:32.203Z,70.60
2018-01-07T16:23:59.989Z,70.30
2018-01-07T16:26:27.617Z,70.20
2018-01-07T16:28:55.430Z,70.10
2018-01-07T16:31:23.379Z,70.20
2018-01-07T16:33:50.994Z,70.00
2018-01-07T16:36:18.606Z,69.70
2018-01-07T16:38:46.185Z,70.00
2018-01-07T16:41:14.011Z,70.10
2018-01-07T16:43:42.389Z,70.00
2018-01-07T16:46:09.979Z,70.00
2018-01-07T16:48:37.598Z,70.00
2018-01-07T16:51:05.970Z,70.20
2018-01-07T16:53:33.676Z,70.20
2018-01-07T16:56:01.365Z,70.20
2018-01-07T16:58:29.124Z,70.50
2018-01-07T17:00:56.714Z,70.50
2018-01-07T17:03:24.336Z,70.30
2018-01-07T17:05:52.468Z,70.50
2018-01-07T17:08:20.168Z,70.50
2018-01-07T17:10:47.802Z,70.80
2018-01-07T17:13:15.854Z,70.80
2018-01-07T17:15:43.525Z,70.70
2018-01-07T17:18:11.886Z,70.80
2018-01-07T17:20:39.441Z,71.10
2018-01-07T17:23:07.043Z,71.10
2018-01-07T17:25:34.640Z,71.20
2018-01-07T17:28:02.458Z,70.90
2018-01-07T17:30:30.636Z,71.10
2018-01-07T17:32:59.196Z,71.20
2018-01-07T17:35:28.048Z,71.20
2018-01-07T17:37:55.646Z,71.70
2018-01-07T17:40:24.164Z,71.50
2018-01-07T17:42:52.325Z,71.60
2018-01-07T17:45:20.409Z,71.70
2018-01-07T17:47:48.861Z,71.70
2018-01-07T17:50:18.699Z,71.70
2018-01-07T17:52:47.058Z,71.80
2018-01-07T17:55:14.620Z,71.90
2018-01-07T17:57:45.450Z,72.10
2018-01-07T18:00:14.601Z,72.20
2018-01-07T18:02:42.260Z,72.30
2018-01-07T18:05:09.850Z,72.30
2018-01-07T18:07:37.717Z,72.30
2018-01-07T18:10:05.336Z,72.40
2018-01-07T18:12:33.411Z,72.60
2018-01-07T18:15:01.009Z,72.90
2018-01-07T18:17:28.618Z,72.60
2018-01-07T18:19:56.333Z,72.90
2018-01-07T18:22:23.954Z,72.70
2018-01-07T18:24:51.533Z,72.90
2018-01-07T18:27:19.114Z,73.20
2018-01-07T18:29:46.777Z,73.40
2018-01-07T18:32:14.480Z,73.40
2018-01-07T18:34:43.027Z,73.50
2018-01-07T18:37:10.619Z,73.40
2018-01-07T18:39:38.992Z,73.10
2018-01-07T18:42:06.584Z,73.10
2018-01-07T18:44:34.273Z,73.20
2018-01-07T18:47:01.852Z,74.00
2018-01-07T18:49:29.413Z,73.20
2018-01-07T18:51:56.969Z,73.30
2018-01-07T18:54:24.543Z,73.40
2018-01-07T18:56:52.107Z,73.10
2018-01-07T18:59:19.738Z,73.40
2018-01-07T19:01:47.349Z,73.40
2018-01-07T19:04:15.661Z,73.40
2018-01-07T19:06:43.440Z,73.40
2018-01-07T19:09:11.042Z,73.40
2018-01-07T19:11:39.491Z,73.40
2018-01-07T19:14:07.347Z,73.20
2018-01-07T19:16:34.980Z,73.60
2018-01-07T19:19:02.601Z,73.50
2018-01-07T19:21:30.177Z,73.70
2018-01-07T19:23:57.835Z,73.60
2018-01-07T19:26:25.722Z,73.70
2018-01-07T19:28:53.340Z,73.70
2018-01-07T19:31:21.302Z,73.60
2018-01-07T19:33:48.862Z,73.70
2018-01-07T19:36:16.613Z,73.50
2018-01-07T19:38:44.405Z,73.60
2018-01-07T19:41:11.978Z,73.70
2018-01-07T19:43:39.538Z,73.80
2018-01-07T19:46:07.169Z,73.80
2018-01-07T19:48:34.733Z,73.90
2018-01-07T19:51:02.340Z,73.90
2018-01-07T19:53:30.715Z,74.00
2018-01-07T19:55:58.377Z,73.80
2018-01-07T19:58:27.299Z,74.10
2018-01-07T20:00:54.926Z,73.90
2018-01-07T20:03:23.270Z,73.90
2018-01-07T20:05:50.834Z,74.00
2018-01-07T20:08:18.429Z,73.90
2018-01-07T20:10:46.858Z,74.10
2018-01-07T20:13:14.480Z,74.00
2018-01-07T20:15:42.106Z,74.00
2018-01-07T20:18:09.718Z,74.00
2018-01-07T20:20:37.303Z,73.90
2018-01-07T20:23:04.915Z,73.80
2018-01-07T20:25:32.630Z,73.70
2018-01-07T20:28:00.207Z,73.80
2018-01-07T20:30:27.775Z,73.80
2018-01-07T20:32:55.355Z,74.00
2018-01-07T20:35:22.958Z,74.00
2018-01-07T20:37:50.514Z,74.30
2018-01-07T20:40:18.134Z,74.50
2018-01-07T20:42:45.793Z,74.50
2018-01-07T20:45:14.173Z,74.50
2018-01-07T20:47:41.731Z,74.50
2018-01-07T20:50:09.504Z,74.70
2018-01-07T20:52:37.053Z,74.70
2018-01-07T20:55:04.891Z,75.00
2018-01-07T20:57:32.457Z,75.00
2018-01-07T21:00:00.039Z,74.90
2018-01-07T21:02:27.607Z,74.80
2018-01-07T21:04:55.232Z,75.00
2018-01-07T21:07:23.584Z,75.00
2018-01-07T21:09:51.143Z,75.00
2018-01-07T21:12:18.731Z,75.30
2018-01-07T21:14:46.433Z,75.20
2018-01-07T21:17:14.302Z,75.40
2018-01-07T21:19:42.698Z,75.50
2018-01-07T21:22:11.017Z,75.50
2018-01-07T21:24:38.580Z,75.50
2018-01-07T21:27:06.148Z,75.60
2018-01-07T21:29:33.719Z,75.60
2018-01-07T21:32:01.328Z,75.90
2018-01-07T21:34:28.983Z,75.80
2018-01-07T21:36:56.658Z,76.10
2018-01-07T21:39:24.261Z,76.10
2018-01-07T21:41:51.829Z,76.10
2018-01-07T21:44:19.434Z,76.30
2018-01-07T21:46:47.041Z,76.20
2018-01-07T21:49:14.829Z,76.20
2018-01-07T21:51:42.458Z,76.20
2018-01-07T21:54:10.030Z,76.20
2018-01-07T21:56:37.647Z,76.30
2018-01-07T21:59:05.295Z,76.20
2018-01-07T22:01:44.836Z,76.30
2018-01-07T22:04:12.461Z,76.30
2018-01-07T22:09:38.870Z,76.30
2018-01-07T22:12:07.033Z,76.40
2018-01-07T22:14:34.687Z,76.50
2018-01-07T22:17:02.385Z,76.60
2018-01-07T22:19:30.013Z,76.70
2018-01-07T22:21:57.674Z,76.60
2018-01-07T22:24:25.237Z,76.70
2018-01-07T22:26:52.847Z,76.70
2018-01-07T22:29:20.697Z,76.90
2018-01-07T22:31:48.310Z,77.00
2018-01-07T22:34:16.395Z,77.00
2018-01-07T22:36:45.522Z,77.30
2018-01-07T22:39:13.098Z,77.30
2018-01-07T22:41:40.786Z,77.20
2018-01-07T22:44:08.413Z,77.30
2018-01-07T22:46:36.036Z,77.50
2018-01-07T22:49:03.594Z,77.50
2018-01-07T22:51:31.190Z,77.50
2018-01-07T22:53:58.820Z,77.50
2018-01-07T22:56:26.379Z,77.50
2018-01-07T22:58:54.053Z,77.50
2018-01-07T23:01:22.369Z,77.60
2018-01-07T23:03:50.421Z,77.60
2018-01-07T23:06:18.014Z,77.80
2018-01-07T23:08:45.699Z,77.80
2018-01-07T23:11:14.049Z,78.20
2018-01-07T23:13:41.621Z,78.00
2018-01-07T23:16:09.183Z,78.20
2018-01-07T23:18:36.733Z,78.20
2018-01-07T23:21:04.290Z,78.10
2018-01-07T23:23:31.891Z,78.30
2018-01-07T23:26:00.347Z,78.40
2018-01-07T23:28:27.956Z,78.40
2018-01-07T23:30:55.559Z,78.60
2018-01-07T23:33:23.182Z,78.70
2018-01-07T23:35:50.780Z,79.30
2018-01-07T23:38:18.409Z,78.80
2018-01-07T23:40:45.972Z,78.80
2018-01-07T23:43:13.604Z,78.90
2018-01-07T23:45:41.179Z,78.90
2018-01-07T23:48:08.811Z,78.90
2018-01-07T23:50:37.183Z,79.10
2018-01-07T23:53:05.352Z,79.00
2018-01-07T23:55:34.440Z,79.10
2018-01-07T23:58:02.818Z,79.20
